sensor_id;sensor_type;location;lat;lon;timestamp;pressure;altitude;pressure_sealevel;temperature;humidity
12594;BME280;6362;50.208;9.182;2023-10-13T00:00:26;99828.94;;;15.21;100.00
12594;BME280;6362;50.208;9.182;2023-10-13T00:02:58;99823.81;;;15.17;100.00
12594;BME280;6362;50.208;9.182;2023-10-13T00:05:30;99829.91;;;15.17;100.00
12594;BME280;6362;50.208;9.182;2023-10-13T00:08:00;99829.06;;;15.15;100.00
12594;BME280;6362;50.208;9.182;2023-10-13T00:10:35;99828.94;;;15.20;100.00
12594;BME280;6362;50.208;9.182;2023-10-13T00:13:01;99828.03;;;15.21;100.00
12594;BME280;6362;50.208;9.182;2023-10-13T00:15:47;99829.81;;;15.20;100.00
12594;BME280;6362;50.208;9.182;2023-10-13T00:18:32;99826.31;;;15.21;100.00
12594;BME280;6362;50.208;9.182;2023-10-13T00:21:08;99825.47;;;15.19;100.00
12594;BME280;6362;50.208;9.182;2023-10-13T00:23:41;99827.25;;;15.19;100.00
12594;BME280;6362;50.208;9.182;2023-10-13T00:26:29;99822.09;;;15.16;100.00
12594;BME280;6362;50.208;9.182;2023-10-13T00:28:56;99820.28;;;15.18;100.00
12594;BME280;6362;50.208;9.182;2023-10-13T00:31:40;99817.75;;;15.15;100.00
12594;BME280;6362;50.208;9.182;2023-10-13T00:34:08;99806.47;;;15.13;100.00
12594;BME280;6362;50.208;9.182;2023-10-13T00:36:38;99807.38;;;15.10;100.00
12594;BME280;6362;50.208;9.182;2023-10-13T00:39:22;99808.28;;;15.09;100.00
12594;BME280;6362;50.208;9.182;2023-10-13T00:41:48;99811.81;;;15.08;100.00
12594;BME280;6362;50.208;9.182;2023-10-13T00:44:18;99807.47;;;15.07;100.00
12594;BME280;6362;50.208;9.182;2023-10-13T00:46:53;99806.63;;;15.07;100.00
12594;BME280;6362;50.208;9.182;2023-10-13T00:49:21;99798.78;;;15.07;100.00
12594;BME280;6362;50.208;9.182;2023-10-13T00:51:47;99801.44;;;15.05;100.00
12594;BME280;6362;50.208;9.182;2023-10-13T00:54:14;99795.31;;;15.04;100.00
12594;BME280;6362;50.208;9.182;2023-10-13T00:56:46;99795.19;;;15.11;100.00
12594;BME280;6362;50.208;9.182;2023-10-13T00:59:29;99802.16;;;15.10;100.00
12594;BME280;6362;50.208;9.182;2023-10-13T01:01:59;99805.72;;;15.08;100.00
12594;BME280;6362;50.208;9.182;2023-10-13T01:04:45;99799.56;;;15.09;100.00
12594;BME280;6362;50.208;9.182;2023-10-13T01:07:12;99803.91;;;15.10;100.00
12594;BME280;6362;50.208;9.182;2023-10-13T01:09:41;99801.41;;;15.07;100.00
12594;BME280;6362;50.208;9.182;2023-10-13T01:12:12;99803.03;;;15.11;100.00
12594;BME280;6362;50.208;9.182;2023-10-13T01:14:37;99797.75;;;15.12;100.00
12594;BME280;6362;50.208;9.182;2023-10-13T01:17:03;99790.69;;;15.14;100.00
12594;BME280;6362;50.208;9.182;2023-10-13T01:19:29;99790.69;;;15.14;100.00
12594;BME280;6362;50.208;9.182;2023-10-13T01:21:55;99781.91;;;15.17;100.00
12594;BME280;6362;50.208;9.182;2023-10-13T01:24:30;99778.38;;;15.18;100.00
12594;BME280;6362;50.208;9.182;2023-10-13T01:27:03;99777.50;;;15.17;100.00
12594;BME280;6362;50.208;9.182;2023-10-13T01:29:46;99785.25;;;15.20;100.00
12594;BME280;6362;50.208;9.182;2023-10-13T01:32:21;99777.41;;;15.20;100.00
12594;BME280;6362;50.208;9.182;2023-10-13T01:34:46;99783.44;;;15.24;100.00
12594;BME280;6362;50.208;9.182;2023-10-13T01:37:15;99774.59;;;15.26;100.00
12594;BME280;6362;50.208;9.182;2023-10-13T01:39:41;99761.44;;;15.29;100.00
12594;BME280;6362;50.208;9.182;2023-10-13T01:42:07;99759.78;;;15.27;100.00
12594;BME280;6362;50.208;9.182;2023-10-13T01:44:33;99764.09;;;15.28;100.00
12594;BME280;6362;50.208;9.182;2023-10-13T01:47:02;99769.28;;;15.29;100.00
12594;BME280;6362;50.208;9.182;2023-10-13T01:49:35;99766.66;;;15.29;100.00
12594;BME280;6362;50.208;9.182;2023-10-13T01:52:07;99765.81;;;15.29;100.00
12594;BME280;6362;50.208;9.182;2023-10-13T01:54:37;99763.19;;;15.29;100.00
12594;BME280;6362;50.208;9.182;2023-10-13T01:57:06;99769.25;;;15.31;100.00
12594;BME280;6362;50.208;9.182;2023-10-13T01:59:32;99760.47;;;15.32;100.00
12594;BME280;6362;50.208;9.182;2023-10-13T02:01:57;99761.34;;;15.32;100.00
12594;BME280;6362;50.208;9.182;2023-10-13T02:04:27;99758.69;;;15.34;100.00
12594;BME280;6362;50.208;9.182;2023-10-13T02:06:52;99757.78;;;15.35;100.00
12594;BME280;6362;50.208;9.182;2023-10-13T02:09:17;99753.31;;;15.37;100.00
12594;BME280;6362;50.208;9.182;2023-10-13T02:11:51;99741.97;;;15.38;100.00
12594;BME280;6362;50.208;9.182;2023-10-13T02:14:20;99732.38;;;15.37;100.00
12594;BME280;6362;50.208;9.182;2023-10-13T02:16:47;99723.63;;;15.38;100.00
12594;BME280;6362;50.208;9.182;2023-10-13T02:19:15;99720.13;;;15.38;100.00
12594;BME280;6362;50.208;9.182;2023-10-13T02:21:42;99728.88;;;15.38;100.00
12594;BME280;6362;50.208;9.182;2023-10-13T02:24:10;99727.84;;;15.42;100.00
12594;BME280;6362;50.208;9.182;2023-10-13T02:26:41;99723.56;;;15.40;100.00
12594;BME280;6362;50.208;9.182;2023-10-13T02:29:07;99717.50;;;15.38;100.00
12594;BME280;6362;50.208;9.182;2023-10-13T02:31:37;99727.91;;;15.41;100.00
12594;BME280;6362;50.208;9.182;2023-10-13T02:34:03;99725.28;;;15.41;100.00
12594;BME280;6362;50.208;9.182;2023-10-13T02:36:38;99728.75;;;15.41;100.00
12594;BME280;6362;50.208;9.182;2023-10-13T02:39:18;99725.28;;;15.41;100.00
12594;BME280;6362;50.208;9.182;2023-10-13T02:41:50;99724.31;;;15.43;100.00
12594;BME280;6362;50.208;9.182;2023-10-13T02:44:16;99719.06;;;15.43;100.00
12594;BME280;6362;50.208;9.182;2023-10-13T02:46:57;99713.84;;;15.43;100.00
12594;BME280;6362;50.208;9.182;2023-10-13T02:49:24;99711.13;;;15.46;100.00
12594;BME280;6362;50.208;9.182;2023-10-13T02:51:51;99702.41;;;15.46;100.00
12594;BME280;6362;50.208;9.182;2023-10-13T02:54:18;99699.69;;;15.49;100.00
12594;BME280;6362;50.208;9.182;2023-10-13T02:56:44;99688.44;;;15.45;100.00
12594;BME280;6362;50.208;9.182;2023-10-13T02:59:32;99691.94;;;15.46;100.00
12594;BME280;6362;50.208;9.182;2023-10-13T03:02:12;99692.00;;;15.44;100.00
12594;BME280;6362;50.208;9.182;2023-10-13T03:04:56;99692.88;;;15.43;100.00
12594;BME280;6362;50.208;9.182;2023-10-13T03:07:27;99690.25;;;15.43;100.00
12594;BME280;6362;50.208;9.182;2023-10-13T03:09:57;99686.75;;;15.44;100.00
12594;BME280;6362;50.208;9.182;2023-10-13T03:12:25;99692.84;;;15.45;100.00
12594;BME280;6362;50.208;9.182;2023-10-13T03:14:51;99683.22;;;15.45;100.00
12594;BME280;6362;50.208;9.182;2023-10-13T03:17:37;99681.44;;;15.46;100.00
12594;BME280;6362;50.208;9.182;2023-10-13T03:20:12;99676.16;;;15.47;100.00
12594;BME280;6362;50.208;9.182;2023-10-13T03:22:48;99678.72;;;15.49;100.00
12594;BME280;6362;50.208;9.182;2023-10-13T03:25:17;99663.88;;;15.49;100.00
12594;BME280;6362;50.208;9.182;2023-10-13T03:27:49;99659.50;;;15.48;100.00
12594;BME280;6362;50.208;9.182;2023-10-13T03:30:15;99652.47;;;15.50;100.00
12594;BME280;6362;50.208;9.182;2023-10-13T03:32:44;99650.78;;;15.49;100.00
12594;BME280;6362;50.208;9.182;2023-10-13T03:35:20;99647.97;;;15.54;100.00
12594;BME280;6362;50.208;9.182;2023-10-13T03:38:03;99650.59;;;15.54;100.00
12594;BME280;6362;50.208;9.182;2023-10-13T03:40:29;99651.41;;;15.56;100.00
12594;BME280;6362;50.208;9.182;2023-10-13T03:42:58;99646.22;;;15.54;100.00
12594;BME280;6362;50.208;9.182;2023-10-13T03:45:37;99654.94;;;15.55;100.00
12594;BME280;6362;50.208;9.182;2023-10-13T03:48:16;99647.09;;;15.55;100.00
12594;BME280;6362;50.208;9.182;2023-10-13T03:50:57;99651.44;;;15.54;100.00
12594;BME280;6362;50.208;9.182;2023-10-13T03:53:30;99654.06;;;15.54;100.00
12594;BME280;6362;50.208;9.182;2023-10-13T03:56:02;99647.97;;;15.54;100.00
12594;BME280;6362;50.208;9.182;2023-10-13T03:58:38;99652.34;;;15.53;100.00
12594;BME280;6362;50.208;9.182;2023-10-13T04:01:04;99654.13;;;15.53;100.00
12594;BME280;6362;50.208;9.182;2023-10-13T04:03:35;99641.94;;;15.52;100.00
12594;BME280;6362;50.208;9.182;2023-10-13T04:06:06;99639.38;;;15.50;100.00
12594;BME280;6362;50.208;9.182;2023-10-13T04:08:32;99637.41;;;15.57;100.00
12594;BME280;6362;50.208;9.182;2023-10-13T04:11:13;99637.34;;;15.58;100.00
12594;BME280;6362;50.208;9.182;2023-10-13T04:13:58;99632.75;;;15.67;100.00
12594;BME280;6362;50.208;9.182;2023-10-13T04:16:41;99625.53;;;15.73;100.00
12594;BME280;6362;50.208;9.182;2023-10-13T04:19:18;99628.09;;;15.75;100.00
12594;BME280;6362;50.208;9.182;2023-10-13T04:21:50;99635.91;;;15.76;100.00
12594;BME280;6362;50.208;9.182;2023-10-13T04:24:26;99634.19;;;15.75;100.00
12594;BME280;6362;50.208;9.182;2023-10-13T04:27:00;99623.72;;;15.75;100.00
12594;BME280;6362;50.208;9.182;2023-10-13T04:29:54;99624.63;;;15.74;100.00
12594;BME280;6362;50.208;9.182;2023-10-13T04:32:36;99624.63;;;15.74;100.00
12594;BME280;6362;50.208;9.182;2023-10-13T04:35:07;99623.63;;;15.78;100.00
12594;BME280;6362;50.208;9.182;2023-10-13T04:37:43;99621.84;;;15.79;100.00
12594;BME280;6362;50.208;9.182;2023-10-13T04:40:26;99617.47;;;15.79;100.00
12594;BME280;6362;50.208;9.182;2023-10-13T04:43:00;99619.16;;;15.80;100.00
12594;BME280;6362;50.208;9.182;2023-10-13T04:45:42;99619.22;;;15.79;100.00
12594;BME280;6362;50.208;9.182;2023-10-13T04:48:19;99612.28;;;15.78;100.00
12594;BME280;6362;50.208;9.182;2023-10-13T04:50:48;99609.69;;;15.76;100.00
12594;BME280;6362;50.208;9.182;2023-10-13T04:53:22;99599.31;;;15.73;100.00
12594;BME280;6362;50.208;9.182;2023-10-13T04:56:20;99602.88;;;15.71;100.00
12594;BME280;6362;50.208;9.182;2023-10-13T04:59:20;99598.63;;;15.68;100.00
12594;BME280;6362;50.208;9.182;2023-10-13T05:02:02;99605.69;;;15.66;100.00
12594;BME280;6362;50.208;9.182;2023-10-13T05:04:46;99603.16;;;15.63;100.00
12594;BME280;6362;50.208;9.182;2023-10-13T05:07:33;99598.84;;;15.61;100.00
12594;BME280;6362;50.208;9.182;2023-10-13T05:10:17;99587.47;;;15.60;100.00
12594;BME280;6362;50.208;9.182;2023-10-13T05:13:02;99595.47;;;15.57;100.00
12594;BME280;6362;50.208;9.182;2023-10-13T05:15:50;99598.94;;;15.57;100.00
12594;BME280;6362;50.208;9.182;2023-10-13T05:18:35;99591.88;;;15.59;100.00
12594;BME280;6362;50.208;9.182;2023-10-13T05:21:27;99589.31;;;15.58;100.00
12594;BME280;6362;50.208;9.182;2023-10-13T05:24:11;99589.25;;;15.59;100.00
12594;BME280;6362;50.208;9.182;2023-10-13T05:26:55;99588.19;;;15.67;100.00
12594;BME280;6362;50.208;9.182;2023-10-13T05:29:43;99584.59;;;15.69;100.00
12594;BME280;6362;50.208;9.182;2023-10-13T05:32:27;99588.06;;;15.70;100.00
12594;BME280;6362;50.208;9.182;2023-10-13T05:35:12;99581.97;;;15.69;100.00
12594;BME280;6362;50.208;9.182;2023-10-13T05:37:56;99585.44;;;15.70;100.00
12594;BME280;6362;50.208;9.182;2023-10-13T05:41:00;99580.25;;;15.68;100.00
12594;BME280;6362;50.208;9.182;2023-10-13T05:43:44;99568.97;;;15.66;100.00
12594;BME280;6362;50.208;9.182;2023-10-13T05:46:28;99576.00;;;15.66;100.00
12594;BME280;6362;50.208;9.182;2023-10-13T05:49:05;99575.06;;;15.67;100.00
12594;BME280;6362;50.208;9.182;2023-10-13T05:51:36;99572.47;;;15.67;100.00
12594;BME280;6362;50.208;9.182;2023-10-13T05:54:05;99576.88;;;15.65;100.00
12594;BME280;6362;50.208;9.182;2023-10-13T05:59:24;99577.56;;;15.70;100.00
12594;BME280;6362;50.208;9.182;2023-10-13T06:02:08;99585.34;;;15.73;100.00
12594;BME280;6362;50.208;9.182;2023-10-13T06:04:52;99584.44;;;15.74;100.00
12594;BME280;6362;50.208;9.182;2023-10-13T06:07:36;99585.19;;;15.77;100.00
12594;BME280;6362;50.208;9.182;2023-10-13T06:10:20;99593.94;;;15.76;100.00
12594;BME280;6362;50.208;9.182;2023-10-13T06:13:04;99592.22;;;15.77;100.00
12594;BME280;6362;50.208;9.182;2023-10-13T06:15:48;99587.69;;;15.80;100.00
12594;BME280;6362;50.208;9.182;2023-10-13T06:18:32;99584.94;;;15.85;100.00
12594;BME280;6362;50.208;9.182;2023-10-13T06:21:16;99575.00;;;15.93;100.00
12594;BME280;6362;50.208;9.182;2023-10-13T06:24:00;99575.47;;;16.04;100.00
12594;BME280;6362;50.208;9.182;2023-10-13T06:26:44;99577.00;;;16.12;100.00
12594;BME280;6362;50.208;9.182;2023-10-13T06:29:31;99578.47;;;16.19;100.00
12594;BME280;6362;50.208;9.182;2023-10-13T06:31:57;99578.47;;;16.19;100.00
12594;BME280;6362;50.208;9.182;2023-10-13T06:34:23;99578.47;;;16.19;100.00
12594;BME280;6362;50.208;9.182;2023-10-13T06:37:04;99577.56;;;16.20;100.00
12594;BME280;6362;50.208;9.182;2023-10-13T06:39:48;99568.84;;;16.19;100.00
12594;BME280;6362;50.208;9.182;2023-10-13T06:42:13;99583.56;;;16.23;100.00
12594;BME280;6362;50.208;9.182;2023-10-13T06:44:40;99577.25;;;16.29;100.00
12594;BME280;6362;50.208;9.182;2023-10-13T06:47:10;99572.78;;;16.31;100.00
12594;BME280;6362;50.208;9.182;2023-10-13T06:49:37;99577.88;;;16.35;100.00
12594;BME280;6362;50.208;9.182;2023-10-13T06:52:04;99573.47;;;16.36;100.00
12594;BME280;6362;50.208;9.182;2023-10-13T06:54:32;99578.63;;;16.39;100.00
12594;BME280;6362;50.208;9.182;2023-10-13T06:57:00;99572.31;;;16.43;100.00
12594;BME280;6362;50.208;9.182;2023-10-13T06:59:29;99575.69;;;16.47;100.00
12594;BME280;6362;50.208;9.182;2023-10-13T07:01:58;99578.09;;;16.53;100.00
12594;BME280;6362;50.208;9.182;2023-10-13T07:04:29;99582.16;;;16.61;100.00
12594;BME280;6362;50.208;9.182;2023-10-13T07:06:55;99579.19;;;16.71;100.00
12594;BME280;6362;50.208;9.182;2023-10-13T07:09:20;99591.06;;;16.81;100.00
12594;BME280;6362;50.208;9.182;2023-10-13T07:12:05;99594.38;;;16.86;100.00
12594;BME280;6362;50.208;9.182;2023-10-13T07:14:52;99592.31;;;16.94;100.00
12594;BME280;6362;50.208;9.182;2023-10-13T07:17:19;99586.75;;;17.02;100.00
12594;BME280;6362;50.208;9.182;2023-10-13T07:19:52;99588.19;;;17.10;100.00
12594;BME280;6362;50.208;9.182;2023-10-13T07:22:31;99594.81;;;17.19;100.00
12594;BME280;6362;50.208;9.182;2023-10-13T07:25:05;99596.09;;;17.31;100.00
12594;BME280;6362;50.208;9.182;2023-10-13T07:27:31;99590.47;;;17.40;100.00
12594;BME280;6362;50.208;9.182;2023-10-13T07:30:00;99589.09;;;17.52;100.00
12594;BME280;6362;50.208;9.182;2023-10-13T07:32:42;99594.50;;;17.69;100.00
12594;BME280;6362;50.208;9.182;2023-10-13T07:35:12;99586.88;;;17.85;100.00
12594;BME280;6362;50.208;9.182;2023-10-13T07:37:41;99584.63;;;17.96;100.00
12594;BME280;6362;50.208;9.182;2023-10-13T07:40:10;99579.34;;;18.16;100.00
12594;BME280;6362;50.208;9.182;2023-10-13T07:42:51;99580.88;;;18.22;100.00
12594;BME280;6362;50.208;9.182;2023-10-13T07:45:17;99563.09;;;18.27;100.00
12594;BME280;6362;50.208;9.182;2023-10-13T07:47:51;99565.25;;;18.38;99.53
12594;BME280;6362;50.208;9.182;2023-10-13T07:50:16;99567.63;;;18.42;98.88
12594;BME280;6362;50.208;9.182;2023-10-13T07:52:51;99573.50;;;18.49;96.67
12594;BME280;6362;50.208;9.182;2023-10-13T07:55:45;99567.09;;;18.55;97.71
12594;BME280;6362;50.208;9.182;2023-10-13T07:58:12;99557.03;;;18.63;96.03
12594;BME280;6362;50.208;9.182;2023-10-13T08:00:39;99554.25;;;18.67;96.03
12594;BME280;6362;50.208;9.182;2023-10-13T08:03:19;99552.88;;;18.78;93.76
12594;BME280;6362;50.208;9.182;2023-10-13T08:05:57;99561.56;;;18.80;93.39
12594;BME280;6362;50.208;9.182;2023-10-13T08:08:24;99551.44;;;18.89;93.06
12594;BME280;6362;50.208;9.182;2023-10-13T08:11:13;99559.06;;;18.95;93.44
12594;BME280;6362;50.208;9.182;2023-10-13T08:13:49;99552.41;;;19.06;93.24
12594;BME280;6362;50.208;9.182;2023-10-13T08:16:20;99559.03;;;19.32;89.21
12594;BME280;6362;50.208;9.182;2023-10-13T08:18:52;99552.16;;;19.46;88.73
12594;BME280;6362;50.208;9.182;2023-10-13T08:21:18;99565.16;;;19.68;86.33
12594;BME280;6362;50.208;9.182;2023-10-13T08:23:51;99557.28;;;20.01;84.00
12594;BME280;6362;50.208;9.182;2023-10-13T08:26:23;99555.59;;;20.34;82.94
12594;BME280;6362;50.208;9.182;2023-10-13T08:28:59;99556.84;;;20.75;80.67
12594;BME280;6362;50.208;9.182;2023-10-13T08:31:51;99554.44;;;21.02;76.86
12594;BME280;6362;50.208;9.182;2023-10-13T08:34:32;99537.34;;;21.24;75.35
12594;BME280;6362;50.208;9.182;2023-10-13T08:37:13;99545.31;;;21.54;75.52
12594;BME280;6362;50.208;9.182;2023-10-13T08:39:45;99543.41;;;21.72;72.04
12594;BME280;6362;50.208;9.182;2023-10-13T08:42:35;99540.38;;;21.92;70.85
12594;BME280;6362;50.208;9.182;2023-10-13T08:45:09;99540.53;;;22.19;70.65
12594;BME280;6362;50.208;9.182;2023-10-13T08:47:58;99543.00;;;22.22;68.76
12594;BME280;6362;50.208;9.182;2023-10-13T08:50:53;99545.84;;;22.33;67.18
12594;BME280;6362;50.208;9.182;2023-10-13T08:53:27;99537.13;;;22.31;66.98
12594;BME280;6362;50.208;9.182;2023-10-13T08:58:32;99522.38;;;22.27;64.02
12594;BME280;6362;50.208;9.182;2023-10-13T09:01:16;99519.53;;;22.30;64.00
12594;BME280;6362;50.208;9.182;2023-10-13T09:07:03;99497.72;;;22.54;62.41
12594;BME280;6362;50.208;9.182;2023-10-13T09:12:23;99496.13;;;22.65;60.53
12594;BME280;6362;50.208;9.182;2023-10-13T09:15:00;99486.53;;;22.63;59.47
12594;BME280;6362;50.208;9.182;2023-10-13T09:17:43;99494.72;;;22.60;60.77
12594;BME280;6362;50.208;9.182;2023-10-13T09:20:37;99487.44;;;22.76;59.56
12594;BME280;6362;50.208;9.182;2023-10-13T09:23:10;99492.03;;;22.87;59.46
12594;BME280;6362;50.208;9.182;2023-10-13T09:25:39;99491.06;;;23.02;57.67
12594;BME280;6362;50.208;9.182;2023-10-13T09:28:23;99490.13;;;23.03;57.29
12594;BME280;6362;50.208;9.182;2023-10-13T09:30:54;99480.03;;;23.35;56.31
12594;BME280;6362;50.208;9.182;2023-10-13T09:33:28;99481.16;;;23.31;55.80
12594;BME280;6362;50.208;9.182;2023-10-13T09:36:13;99472.47;;;23.29;54.42
12594;BME280;6362;50.208;9.182;2023-10-13T09:38:42;99467.38;;;23.26;55.18
12594;BME280;6362;50.208;9.182;2023-10-13T09:41:14;99466.56;;;23.51;54.82
12594;BME280;6362;50.208;9.182;2023-10-13T09:43:52;99457.88;;;23.75;53.95
12594;BME280;6362;50.208;9.182;2023-10-13T09:46:21;99457.31;;;23.57;53.51
12594;BME280;6362;50.208;9.182;2023-10-13T09:48:57;99468.56;;;23.35;53.94
12594;BME280;6362;50.208;9.182;2023-10-13T09:51:48;99458.91;;;23.34;54.65
12594;BME280;6362;50.208;9.182;2023-10-13T09:56:56;99465.34;;;23.82;52.73
12594;BME280;6362;50.208;9.182;2023-10-13T09:59:39;99455.31;;;24.11;52.15
12594;BME280;6362;50.208;9.182;2023-10-13T10:02:14;99455.72;;;24.18;51.27
12594;BME280;6362;50.208;9.182;2023-10-13T10:04:52;99446.00;;;24.42;50.60
12594;BME280;6362;50.208;9.182;2023-10-13T10:07:28;99451.19;;;24.57;50.42
12594;BME280;6362;50.208;9.182;2023-10-13T10:10:01;99460.56;;;24.49;50.39
12594;BME280;6362;50.208;9.182;2023-10-13T10:15:43;99449.22;;;24.35;51.29
12594;BME280;6362;50.208;9.182;2023-10-13T10:18:22;99453.00;;;24.80;50.08
12594;BME280;6362;50.208;9.182;2023-10-13T10:20:50;99451.63;;;24.51;49.16
12594;BME280;6362;50.208;9.182;2023-10-13T10:23:28;99443.00;;;24.47;49.64
12594;BME280;6362;50.208;9.182;2023-10-13T10:26:14;99448.22;;;24.48;49.74
12594;BME280;6362;50.208;9.182;2023-10-13T10:28:45;99447.63;;;24.19;50.33
12594;BME280;6362;50.208;9.182;2023-10-13T10:31:11;99442.25;;;23.95;51.05
12594;BME280;6362;50.208;9.182;2023-10-13T10:33:42;99445.78;;;23.70;51.84
12594;BME280;6362;50.208;9.182;2023-10-13T10:36:08;99448.88;;;23.77;51.81
12594;BME280;6362;50.208;9.182;2023-10-13T10:38:59;99457.97;;;23.60;52.47
12594;BME280;6362;50.208;9.182;2023-10-13T10:41:26;99453.09;;;23.54;52.62
12594;BME280;6362;50.208;9.182;2023-10-13T10:44:10;99453.09;;;23.54;53.36
12594;BME280;6362;50.208;9.182;2023-10-13T10:46:40;99451.72;;;23.61;53.67
12594;BME280;6362;50.208;9.182;2023-10-13T10:49:07;99444.91;;;23.57;52.95
12594;BME280;6362;50.208;9.182;2023-10-13T10:51:36;99450.84;;;23.61;53.13
12594;BME280;6362;50.208;9.182;2023-10-13T10:54:18;99438.69;;;23.71;52.39
12594;BME280;6362;50.208;9.182;2023-10-13T10:56:45;99435.78;;;24.00;52.05
12594;BME280;6362;50.208;9.182;2023-10-13T10:59:18;99428.50;;;24.27;50.81
12594;BME280;6362;50.208;9.182;2023-10-13T11:01:46;99420.16;;;24.32;50.39
12594;BME280;6362;50.208;9.182;2023-10-13T11:04:18;99417.53;;;24.44;50.03
12594;BME280;6362;50.208;9.182;2023-10-13T11:06:54;99403.59;;;24.41;50.38
12594;BME280;6362;50.208;9.182;2023-10-13T11:11:53;99395.38;;;24.07;50.29
12594;BME280;6362;50.208;9.182;2023-10-13T11:14:27;99401.69;;;23.81;51.53
12594;BME280;6362;50.208;9.182;2023-10-13T11:16:54;99394.38;;;23.72;51.39
12594;BME280;6362;50.208;9.182;2023-10-13T11:19:41;99399.97;;;23.41;51.89
12594;BME280;6362;50.208;9.182;2023-10-13T11:22:13;99392.44;;;23.35;52.77
12594;BME280;6362;50.208;9.182;2023-10-13T11:25:02;99392.34;;;23.37;52.89
12594;BME280;6362;50.208;9.182;2023-10-13T11:27:35;99397.75;;;23.48;52.47
12594;BME280;6362;50.208;9.182;2023-10-13T11:30:17;99381.19;;;23.44;52.56
12594;BME280;6362;50.208;9.182;2023-10-13T11:33:07;99380.22;;;23.58;51.18
12594;BME280;6362;50.208;9.182;2023-10-13T11:35:38;99371.53;;;23.69;51.85
12594;BME280;6362;50.208;9.182;2023-10-13T11:38:20;99356.53;;;23.81;51.12
12594;BME280;6362;50.208;9.182;2023-10-13T11:40:56;99358.41;;;24.04;50.41
12594;BME280;6362;50.208;9.182;2023-10-13T11:43:34;99361.94;;;24.05;50.45
12594;BME280;6362;50.208;9.182;2023-10-13T11:46:23;99357.19;;;23.84;49.66
12594;BME280;6362;50.208;9.182;2023-10-13T11:49:04;99347.28;;;23.99;49.60
12594;BME280;6362;50.208;9.182;2023-10-13T11:51:40;99356.50;;;25.13;47.67
12594;BME280;6362;50.208;9.182;2023-10-13T11:54:20;99353.41;;;25.64;45.59
12594;BME280;6362;50.208;9.182;2023-10-13T11:56:47;99358.50;;;25.90;44.94
12594;BME280;6362;50.208;9.182;2023-10-13T11:59:13;99339.72;;;26.57;42.96
12594;BME280;6362;50.208;9.182;2023-10-13T12:01:50;99328.69;;;26.82;43.15
12594;BME280;6362;50.208;9.182;2023-10-13T12:04:35;99324.03;;;26.64;42.29
12594;BME280;6362;50.208;9.182;2023-10-13T12:07:20;99314.44;;;26.29;43.56
12594;BME280;6362;50.208;9.182;2023-10-13T12:09:53;99312.34;;;26.00;44.62
12594;BME280;6362;50.208;9.182;2023-10-13T12:12:25;99312.88;;;25.49;44.96
12594;BME280;6362;50.208;9.182;2023-10-13T12:14:52;99315.03;;;25.22;45.93
12594;BME280;6362;50.208;9.182;2023-10-13T12:17:27;99318.47;;;24.89;46.07
12594;BME280;6362;50.208;9.182;2023-10-13T12:20:03;99332.31;;;24.81;47.46
12594;BME280;6362;50.208;9.182;2023-10-13T12:22:31;99318.06;;;24.71;47.24
12594;BME280;6362;50.208;9.182;2023-10-13T12:25:08;99327.97;;;24.45;47.81
12594;BME280;6362;50.208;9.182;2023-10-13T12:27:53;99319.91;;;24.34;48.63
12594;BME280;6362;50.208;9.182;2023-10-13T12:30:23;99314.78;;;24.67;47.28
12594;BME280;6362;50.208;9.182;2023-10-13T12:33:02;99313.38;;;25.43;45.18
12594;BME280;6362;50.208;9.182;2023-10-13T12:35:39;99301.38;;;25.38;45.15
12594;BME280;6362;50.208;9.182;2023-10-13T12:38:29;99300.03;;;25.10;45.48
12594;BME280;6362;50.208;9.182;2023-10-13T12:41:07;99292.38;;;25.05;46.25
12594;BME280;6362;50.208;9.182;2023-10-13T12:43:51;99293.31;;;25.04;45.44
12594;BME280;6362;50.208;9.182;2023-10-13T12:46:35;99283.44;;;25.06;45.94
12594;BME280;6362;50.208;9.182;2023-10-13T12:49:19;99281.50;;;25.08;47.14
12594;BME280;6362;50.208;9.182;2023-10-13T12:52:03;99277.88;;;25.54;45.39
12594;BME280;6362;50.208;9.182;2023-10-13T12:54:29;99273.88;;;25.48;44.64
12594;BME280;6362;50.208;9.182;2023-10-13T12:57:01;99276.91;;;25.89;44.32
12594;BME280;6362;50.208;9.182;2023-10-13T12:59:27;99276.16;;;26.30;42.74
12594;BME280;6362;50.208;9.182;2023-10-13T13:01:53;99274.56;;;26.59;42.86
12594;BME280;6362;50.208;9.182;2023-10-13T13:04:19;99263.72;;;26.93;41.87
12594;BME280;6362;50.208;9.182;2023-10-13T13:06:48;99255.16;;;27.20;41.57
12594;BME280;6362;50.208;9.182;2023-10-13T13:09:14;99256.81;;;27.52;39.81
12594;BME280;6362;50.208;9.182;2023-10-13T13:11:40;99255.88;;;28.32;38.52
12594;BME280;6362;50.208;9.182;2023-10-13T13:14:06;99265.16;;;28.76;37.84
12594;BME280;6362;50.208;9.182;2023-10-13T13:16:35;99246.53;;;28.75;37.35
12594;BME280;6362;50.208;9.182;2023-10-13T13:19:04;99247.41;;;28.27;38.93
12594;BME280;6362;50.208;9.182;2023-10-13T13:21:38;99243.44;;;27.92;39.40
12594;BME280;6362;50.208;9.182;2023-10-13T13:24:05;99234.34;;;27.64;40.19
12594;BME280;6362;50.208;9.182;2023-10-13T13:26:36;99229.59;;;27.18;40.68
12594;BME280;6362;50.208;9.182;2023-10-13T13:29:06;99228.75;;;27.67;39.69
12594;BME280;6362;50.208;9.182;2023-10-13T13:31:35;99224.88;;;28.58;37.95
12594;BME280;6362;50.208;9.182;2023-10-13T13:34:09;99219.81;;;29.77;35.89
12594;BME280;6362;50.208;9.182;2023-10-13T13:36:35;99215.88;;;30.60;34.10
12594;BME280;6362;50.208;9.182;2023-10-13T13:39:01;99210.28;;;31.06;34.12
12594;BME280;6362;50.208;9.182;2023-10-13T13:41:27;99208.22;;;31.25;33.30
12594;BME280;6362;50.208;9.182;2023-10-13T13:43:52;99200.53;;;31.31;32.50
12594;BME280;6362;50.208;9.182;2023-10-13T13:46:23;99199.66;;;31.72;32.06
12594;BME280;6362;50.208;9.182;2023-10-13T13:48:58;99205.38;;;31.77;31.74
12594;BME280;6362;50.208;9.182;2023-10-13T13:51:28;99192.06;;;31.68;31.80
12594;BME280;6362;50.208;9.182;2023-10-13T13:53:55;99188.63;;;31.07;32.11
12594;BME280;6362;50.208;9.182;2023-10-13T13:56:21;99181.69;;;30.96;32.37
12594;BME280;6362;50.208;9.182;2023-10-13T13:58:51;99180.59;;;30.55;33.55
12594;BME280;6362;50.208;9.182;2023-10-13T14:01:18;99177.97;;;29.84;34.22
12594;BME280;6362;50.208;9.182;2023-10-13T14:03:46;99169.56;;;28.96;35.53